Van Metre, South Dakota
Current Conditions -  °F | °C
As of 1:53 AM on Monday 24 Nov 2014 (Local Time) from KPIR Reporting Station
Overcast Overcast  
Wind Chill:   Ceiling: 3000
Heat Index: 24°   Visibility: 10mi
Dew Point: 17°   Wind: 23mph
Humidity: 75%   Direction: 310°NW
Pressure: 29.67"   Gusts: 32mph
Location:  43.9557°N, 100.703°W
Report Text: KPIR 240753Z AUTO 31020G28KT 10SM SCT024 OVC030 M04/M08 A2967 RMK AO2 PK WND 32028/0735 SLP063 T10441083
Loading
Personal Weather Stations






























Interactive Weather Map New forecast layout! Learn more

10-Day Weather Forecast

Advertisements
Track Severe Weather on mobile